Aviation Digital Data Service (ADDS)

Output produced by METARs form (1014 UTC 19 January 2019)
found at http://www.aviationweather.gov/metar/data/
 
KLEW 190956Z AUTO 36009KT 10SM CLR M08/M14 A3021 RMK AO2 SLP246 T10831139 FZRANO
KAUG 190953Z AUTO 33010KT 10SM CLR M08/M16 A3022 RMK AO2 PK WND 33026/0855 SLP239 T10831156
KAUG 190852Z 1909/2006 34005KT P6SM BKN250 
     FM200300 03005KT 1SM -SN OVC025
       
KBGR 190953Z 32012KT 10SM OVC250 M11/M16 A3022 RMK AO2 SLP238 T11111161 $
KBGR 190536Z 1906/2006 31009KT P6SM SCT045 
     FM191200 33008KT P6SM FEW060 BKN250 
     FM191400 35007KT P6SM SCT110 OVC200 
     FM192000 02004KT P6SM OVC090 
     FM200100 04004KT P6SM OVC050 
     FM200400 04006KT 2SM -SN OVC030
       
KBHB 190956Z AUTO 34007KT 310V020 10SM CLR M08/M14 A3022 RMK AO2 SLP237 T10831144 FZRANO $
KBHB 191001Z 1910/2006 34010KT P6SM FEW045 
     FM191200 33009KT P6SM FEW060 BKN250 
     FM191400 35007KT P6SM SCT110 OVC200 
     FM192000 02004KT P6SM OVC090 
     FM200100 04004KT P6SM OVC050 
     FM200400 04006KT 2SM -SN OVC030
       
KCAR 190954Z AUTO 32010G19KT 10SM CLR M21/M28 A3019 RMK AO2 SLP241 T12061283
KCAR 190538Z 1906/2006 31012G22KT P6SM SCT030 
     TEMPO 1906/1907 2SM -SHSN BLSN OVC025 
     FM191200 32009KT P6SM SCT045 
     FM191500 33009KT P6SM SCT110 BKN220 
     FM200000 VRB02KT P6SM OVC100 
     FM200300 01003KT P6SM OVC070 
     FM200500 03003KT P6SM OVC050
       
KFVE 190953Z AUTO 31012G20KT 10SM CLR M23/M29 A3014 RMK AO2 SLP229 T12281294 $
KFVE 190958Z 1910/2006 31010G18KT P6SM SCT030 
     FM191200 32009KT P6SM SCT040 
     FM191500 32009KT P6SM SCT110 BKN220 
     FM192300 VRB02KT P6SM BKN100 
     FM200300 VRB02KT P6SM OVC070 
     FM200500 VRB02KT P6SM OVC050
       
KIZG 190954Z AUTO 31003KT 10SM CLR M07/M14 A3019 RMK AO2 SLP230 T10721144
KHUL 190953Z AUTO 36012KT 10SM CLR M17/M22 A3017 RMK AO2 SLP229 T11671217 TSNO
KHUL 191000Z 1910/2006 35010KT P6SM FEW040 
     FM191300 34010G20KT P6SM FEW045 
     FM191500 34010G19KT P6SM SCT100 OVC200 
     FM192200 VRB02KT P6SM OVC090 
     FM200300 02003KT P6SM OVC050 
     FM200500 03003KT 5SM -SN OVC035
       
KMLT 190953Z AUTO 30010KT 10SM CLR M15/M21 A3022 RMK AO2 SLP245 T11501211
KPWM 190951Z VRB05KT 10SM CLR M06/M11 A3022 RMK AO2 SLP234 T10611106 $
KPWM 190852Z 1909/2006 33005KT P6SM SCT050 
     FM191400 36006KT P6SM SCT250 
     FM200200 04006KT 1SM -SN OVC025
       
KPQI 190956Z AUTO 36007KT 10SM CLR M21/M26 A3021 RMK AO2 SLP280 T12111256 FZRANO
KPQI 190959Z 1910/2006 34009KT P6SM FEW040 
     FM191500 33009KT P6SM SCT110 BKN220 
     FM200000 VRB02KT P6SM OVC100 
     FM200300 01003KT P6SM OVC070 
     FM200500 03003KT P6SM OVC050
       
KRKD 190956Z AUTO VRB04KT 10SM CLR M07/M14 A3022 RMK AO2 SLP236 T10721139 FZRANO
KRKD 190852Z 1909/2006 32005KT P6SM BKN250 
     FM191400 36007KT P6SM BKN150 
     FM200300 04007KT 1SM -SN OVC025 AMD LTD TO CLD VIS WIND
       
KSFM 190956Z AUTO 01005KT 10SM CLR M09/M10 A3020 RMK AO2 SLP235 T10891100 FZRANO PNO $
KWVL 190956Z AUTO 10SM CLR M11/M15 A3020 RMK AO2 SLP261 T11061150 FZRANO $
KIWI 190953Z AUTO VRB03KT 10SM CLR M07/M14 A3023 RMK AO2 SLP238 T10671139